createdAt,value
2018-05-31T00:01:05.197Z,19.08
2018-05-31T00:03:35.993Z,19.16
2018-05-31T00:06:06.812Z,19.12
2018-05-31T00:08:37.625Z,19.08
2018-05-31T00:11:08.426Z,19.01
2018-05-31T00:13:39.254Z,18.97
2018-05-31T00:16:10.104Z,18.91
2018-05-31T00:18:40.903Z,18.95
2018-05-31T00:21:11.686Z,18.90
2018-05-31T00:23:42.488Z,18.94
2018-05-31T00:26:13.299Z,18.93
2018-05-31T00:28:44.100Z,18.95
2018-05-31T00:31:14.907Z,18.92
2018-05-31T00:33:45.691Z,19.02
2018-05-31T00:36:16.487Z,19.03
2018-05-31T00:38:47.306Z,18.98
2018-05-31T00:41:18.092Z,18.98
2018-05-31T00:43:48.924Z,18.88
2018-05-31T00:46:19.721Z,18.75
2018-05-31T00:48:50.535Z,18.66
2018-05-31T00:51:21.351Z,18.68
2018-05-31T00:53:52.169Z,18.66
2018-05-31T00:56:22.936Z,18.60
2018-05-31T00:58:53.759Z,18.51
2018-05-31T01:01:24.540Z,18.44
2018-05-31T01:03:55.357Z,18.39
2018-05-31T01:06:26.124Z,18.44
2018-05-31T01:08:57.614Z,18.49
2018-05-31T01:11:28.406Z,18.51
2018-05-31T01:13:59.195Z,18.57
2018-05-31T01:16:29.966Z,18.55
2018-05-31T01:19:00.777Z,18.52
2018-05-31T01:21:31.585Z,18.55
2018-05-31T01:24:02.419Z,18.62
2018-05-31T01:26:33.241Z,18.70
2018-05-31T01:29:04.053Z,18.78
2018-05-31T01:31:34.858Z,18.74
2018-05-31T01:34:05.681Z,18.74
2018-05-31T01:36:36.466Z,18.68
2018-05-31T01:39:07.271Z,18.59
2018-05-31T01:41:38.045Z,18.53
2018-05-31T01:44:08.851Z,18.47
2018-05-31T01:46:39.637Z,18.46
2018-05-31T01:49:10.480Z,18.46
2018-05-31T01:51:41.275Z,18.51
2018-05-31T01:54:12.059Z,18.46
2018-05-31T01:56:42.854Z,18.35
2018-05-31T01:59:13.692Z,18.13
2018-05-31T02:01:44.494Z,18.28
2018-05-31T02:04:15.296Z,18.21
2018-05-31T02:06:46.072Z,18.27
2018-05-31T02:09:16.871Z,18.21
2018-05-31T02:11:47.669Z,18.12
2018-05-31T02:14:18.489Z,18.10
2018-05-31T02:16:49.262Z,18.07
2018-05-31T02:19:20.100Z,18.06
2018-05-31T02:21:50.879Z,18.08
2018-05-31T02:24:21.677Z,18.05
2018-05-31T02:26:52.460Z,17.99
2018-05-31T02:29:23.256Z,18.06
2018-05-31T02:31:54.032Z,18.04
2018-05-31T02:34:24.835Z,18.02
2018-05-31T02:36:55.612Z,17.98
2018-05-31T02:39:26.408Z,17.98
2018-05-31T02:41:57.199Z,18.02
2018-05-31T02:44:28.012Z,18.00
2018-05-31T02:46:58.800Z,18.05
2018-05-31T02:49:29.603Z,17.94
2018-05-31T02:52:00.383Z,17.95
2018-05-31T02:54:31.207Z,17.92
2018-05-31T02:57:02.030Z,17.93
2018-05-31T02:59:32.820Z,17.85
2018-05-31T03:02:03.624Z,17.83
2018-05-31T03:04:34.460Z,17.79
2018-05-31T03:07:05.275Z,17.72
2018-05-31T03:09:36.087Z,17.76
2018-05-31T03:12:07.276Z,17.78
2018-05-31T03:14:38.103Z,17.70
2018-05-31T03:17:08.878Z,17.61
2018-05-31T03:19:39.680Z,17.68
2018-05-31T03:22:10.438Z,17.81
2018-05-31T03:24:41.288Z,17.92
2018-05-31T03:27:12.083Z,17.95
2018-05-31T03:29:42.903Z,17.97
2018-05-31T03:32:13.687Z,17.95
2018-05-31T03:34:44.510Z,17.93
2018-05-31T03:37:15.321Z,17.94
2018-05-31T03:39:46.140Z,18.04
2018-05-31T03:42:16.919Z,18.09
2018-05-31T03:44:47.756Z,18.23
2018-05-31T03:47:18.569Z,18.25
2018-05-31T03:49:49.363Z,18.29
2018-05-31T03:52:20.145Z,18.37
2018-05-31T03:54:50.940Z,18.49
2018-05-31T03:57:21.743Z,18.65
2018-05-31T03:59:52.539Z,18.77
2018-05-31T04:02:23.325Z,18.90
2018-05-31T04:04:54.133Z,19.05
2018-05-31T04:07:24.918Z,19.20
2018-05-31T04:09:55.712Z,19.42
2018-05-31T04:12:26.506Z,19.70
2018-05-31T04:14:57.323Z,19.78
2018-05-31T04:17:31.106Z,19.92
2018-05-31T04:20:01.914Z,20.12
2018-05-31T04:22:32.718Z,20.28
2018-05-31T04:25:03.547Z,20.53
2018-05-31T04:27:34.321Z,21.14
2018-05-31T04:30:05.137Z,21.75
2018-05-31T04:32:35.936Z,21.91
2018-05-31T04:35:07.269Z,22.37
2018-05-31T04:37:38.079Z,22.23
2018-05-31T04:40:08.896Z,22.56
2018-05-31T04:42:39.698Z,22.65
2018-05-31T04:45:10.571Z,22.37
2018-05-31T04:47:41.361Z,22.68
2018-05-31T04:50:12.176Z,22.56
2018-05-31T04:52:42.991Z,22.98
2018-05-31T04:55:13.799Z,23.38
2018-05-31T04:57:44.609Z,23.76
2018-05-31T05:00:15.446Z,24.24
2018-05-31T05:02:46.236Z,24.00
2018-05-31T05:05:17.041Z,24.38
2018-05-31T05:07:47.845Z,24.26
2018-05-31T05:10:18.662Z,23.77
2018-05-31T05:12:49.446Z,23.64
2018-05-31T05:15:20.242Z,23.38
2018-05-31T05:17:51.118Z,23.05
2018-05-31T05:20:21.944Z,23.13
2018-05-31T05:22:52.728Z,23.60
2018-05-31T05:25:23.549Z,24.26
2018-05-31T05:27:54.339Z,24.32
2018-05-31T05:30:25.135Z,24.65
2018-05-31T05:32:55.974Z,25.17
2018-05-31T05:35:26.777Z,24.90
2018-05-31T05:37:57.568Z,25.38
2018-05-31T05:40:28.383Z,25.59
2018-05-31T05:42:59.175Z,26.13
2018-05-31T05:45:30.003Z,26.93
2018-05-31T05:48:00.788Z,26.98
2018-05-31T05:50:31.586Z,27.56
2018-05-31T05:53:02.384Z,28.19
2018-05-31T05:55:33.206Z,28.10
2018-05-31T05:58:04.003Z,28.61
2018-05-31T06:00:34.822Z,28.17
2018-05-31T06:03:05.623Z,28.53
2018-05-31T06:05:36.420Z,28.31
2018-05-31T06:08:07.236Z,29.14
2018-05-31T06:10:38.049Z,29.43
2018-05-31T06:13:08.855Z,29.66
2018-05-31T06:15:39.718Z,30.20
2018-05-31T06:18:10.516Z,30.51
2018-05-31T06:20:41.312Z,30.68
2018-05-31T06:23:12.102Z,29.78
2018-05-31T06:25:42.933Z,29.35
2018-05-31T06:28:13.724Z,29.95
2018-05-31T06:30:44.543Z,30.23
2018-05-31T06:33:15.321Z,30.04
2018-05-31T06:35:46.122Z,31.09
2018-05-31T06:38:16.908Z,31.68
2018-05-31T06:40:47.696Z,31.50
2018-05-31T06:43:18.480Z,31.66
2018-05-31T06:45:49.346Z,31.74
2018-05-31T06:48:20.103Z,30.68
2018-05-31T06:50:50.911Z,30.80
2018-05-31T06:53:21.754Z,32.18
2018-05-31T06:55:52.551Z,31.25
2018-05-31T06:58:23.312Z,31.44
2018-05-31T07:00:54.168Z,33.15
2018-05-31T07:03:24.885Z,33.40
2018-05-31T07:05:55.649Z,33.66
2018-05-31T07:08:26.427Z,33.94
2018-05-31T07:10:57.228Z,33.53
2018-05-31T07:13:28.016Z,33.77
2018-05-31T07:15:58.818Z,34.10
2018-05-31T07:18:29.604Z,34.18
2018-05-31T07:21:00.408Z,33.37
2018-05-31T07:23:31.226Z,34.40
2018-05-31T07:26:02.064Z,34.27
2018-05-31T07:28:32.918Z,34.77
2018-05-31T07:31:03.726Z,33.69
2018-05-31T07:33:34.520Z,34.97
2018-05-31T07:36:05.312Z,35.15
2018-05-31T07:38:36.110Z,35.81
2018-05-31T07:41:06.925Z,35.54
2018-05-31T07:43:37.748Z,36.26
2018-05-31T07:46:08.570Z,34.80
2018-05-31T07:48:39.338Z,34.49
2018-05-31T07:51:10.137Z,33.91
2018-05-31T07:53:40.912Z,34.53
2018-05-31T07:56:11.723Z,34.81
2018-05-31T07:58:42.505Z,35.96
2018-05-31T08:01:13.318Z,36.03
2018-05-31T08:03:44.107Z,36.74
2018-05-31T08:06:14.914Z,37.57
2018-05-31T08:08:45.717Z,37.04
2018-05-31T08:11:16.522Z,37.21
2018-05-31T08:13:47.309Z,34.98
2018-05-31T08:16:18.109Z,34.91
2018-05-31T08:18:48.889Z,35.86
2018-05-31T08:21:19.689Z,35.30
2018-05-31T08:23:50.445Z,35.92
2018-05-31T08:26:21.235Z,35.76
2018-05-31T08:28:52.000Z,35.85
2018-05-31T08:31:22.844Z,36.29
2018-05-31T08:33:53.590Z,35.68
2018-05-31T08:36:24.396Z,35.93
2018-05-31T08:38:57.259Z,35.16
2018-05-31T08:41:28.009Z,34.91
2018-05-31T08:43:58.832Z,35.32
2018-05-31T08:46:29.636Z,35.99
2018-05-31T08:49:00.418Z,35.32
2018-05-31T08:51:31.252Z,36.12
2018-05-31T08:54:02.048Z,35.84
2018-05-31T08:56:32.856Z,35.10
2018-05-31T08:59:03.620Z,34.65
2018-05-31T09:01:34.424Z,34.60
2018-05-31T09:04:05.195Z,34.83
2018-05-31T09:06:35.989Z,34.31
2018-05-31T09:09:06.766Z,33.95
2018-05-31T09:11:37.552Z,33.22
2018-05-31T09:14:08.392Z,33.54
2018-05-31T09:16:39.232Z,34.91
2018-05-31T09:19:10.015Z,35.42
2018-05-31T09:21:40.819Z,35.89
2018-05-31T09:24:11.609Z,36.45
2018-05-31T09:26:42.431Z,36.07
2018-05-31T09:29:13.208Z,34.81
2018-05-31T09:31:44.003Z,34.80
2018-05-31T09:34:14.771Z,34.85
2018-05-31T09:36:45.563Z,35.19
2018-05-31T09:39:16.341Z,34.89
2018-05-31T09:41:47.187Z,34.06
2018-05-31T09:44:17.943Z,34.63
2018-05-31T09:46:48.755Z,34.62
2018-05-31T09:49:19.534Z,34.44
2018-05-31T09:51:50.337Z,33.78
2018-05-31T09:54:21.101Z,34.28
2018-05-31T09:56:51.932Z,35.39
2018-05-31T09:59:22.716Z,34.17
2018-05-31T10:01:53.515Z,34.46
2018-05-31T10:04:24.291Z,33.99
2018-05-31T10:06:55.087Z,34.85
2018-05-31T10:09:25.847Z,34.81
2018-05-31T10:11:56.660Z,35.38
2018-05-31T10:14:27.455Z,34.47
2018-05-31T10:16:58.258Z,34.58
2018-05-31T10:19:29.036Z,34.38
2018-05-31T10:21:59.845Z,34.32
2018-05-31T10:24:30.615Z,34.42
2018-05-31T10:27:01.420Z,34.13
2018-05-31T10:29:32.220Z,33.66
2018-05-31T10:32:03.050Z,33.29
2018-05-31T10:34:33.927Z,33.68
2018-05-31T10:37:04.733Z,35.05
2018-05-31T10:39:35.508Z,35.17
2018-05-31T10:42:06.293Z,35.13
2018-05-31T10:44:37.060Z,34.89
2018-05-31T10:47:07.880Z,34.55
2018-05-31T10:49:38.668Z,33.60
2018-05-31T10:52:09.461Z,34.04
2018-05-31T10:54:40.223Z,34.36
2018-05-31T10:57:11.020Z,34.94
2018-05-31T10:59:41.817Z,34.42
2018-05-31T11:02:12.618Z,33.87
2018-05-31T11:04:43.404Z,33.71
2018-05-31T11:07:14.209Z,34.24
2018-05-31T11:09:44.990Z,34.83
2018-05-31T11:12:15.772Z,35.54
2018-05-31T11:14:46.541Z,35.74
2018-05-31T11:17:17.342Z,36.16
2018-05-31T11:19:48.116Z,36.42
2018-05-31T11:22:18.921Z,36.67
2018-05-31T11:24:49.714Z,36.38
2018-05-31T11:27:20.544Z,36.24
2018-05-31T11:29:51.304Z,36.78
2018-05-31T11:32:22.116Z,37.65
2018-05-31T11:34:52.914Z,36.68
2018-05-31T11:37:23.698Z,37.24
2018-05-31T11:39:54.464Z,38.49
2018-05-31T11:42:25.258Z,38.42
2018-05-31T11:44:56.032Z,38.51
2018-05-31T11:47:26.859Z,38.18
2018-05-31T11:49:57.636Z,36.96
2018-05-31T11:52:28.448Z,37.50
2018-05-31T11:54:59.225Z,37.80
2018-05-31T11:57:30.037Z,38.18
2018-05-31T12:00:00.803Z,38.54
2018-05-31T12:02:31.576Z,38.48
2018-05-31T12:05:02.379Z,37.66
2018-05-31T12:07:33.168Z,37.89
2018-05-31T12:10:03.965Z,38.39
2018-05-31T12:12:34.769Z,37.57
2018-05-31T12:15:05.564Z,38.13
2018-05-31T12:17:36.447Z,37.58
2018-05-31T12:20:07.172Z,38.58
2018-05-31T12:22:38.899Z,38.09
2018-05-31T12:25:09.683Z,39.22
2018-05-31T12:27:40.516Z,39.76
2018-05-31T12:30:11.304Z,40.08
2018-05-31T12:32:42.092Z,39.33
2018-05-31T12:35:12.907Z,39.93
2018-05-31T12:37:43.702Z,41.19
2018-05-31T12:40:14.457Z,41.32
2018-05-31T12:42:45.249Z,42.04
2018-05-31T12:45:16.044Z,42.28
2018-05-31T12:47:46.883Z,40.47
2018-05-31T12:50:17.680Z,38.88
2018-05-31T12:52:48.466Z,40.15
2018-05-31T12:55:19.246Z,39.46
2018-05-31T12:57:50.022Z,40.28
2018-05-31T13:00:20.816Z,40.85
2018-05-31T13:02:51.634Z,40.91
2018-05-31T13:05:22.422Z,41.68
2018-05-31T13:07:53.207Z,42.70
2018-05-31T13:10:25.644Z,41.67
2018-05-31T13:12:56.450Z,41.95
2018-05-31T13:15:27.224Z,41.21
2018-05-31T13:18:02.960Z,42.10
2018-05-31T13:20:33.812Z,41.10
2018-05-31T13:23:04.598Z,41.51
2018-05-31T13:25:35.384Z,41.55
2018-05-31T13:28:06.161Z,39.10
2018-05-31T13:30:36.936Z,38.47
2018-05-31T13:33:07.723Z,40.62
2018-05-31T13:35:38.489Z,41.71
2018-05-31T13:38:09.267Z,41.48
2018-05-31T13:40:40.056Z,41.27
2018-05-31T13:43:10.855Z,40.35
2018-05-31T13:45:41.669Z,39.22
2018-05-31T13:48:12.444Z,38.57
2018-05-31T13:50:43.219Z,38.50
2018-05-31T13:53:13.989Z,39.95
2018-05-31T13:55:44.814Z,39.89
2018-05-31T13:58:15.626Z,41.13
2018-05-31T14:00:46.399Z,41.99
2018-05-31T14:03:17.164Z,41.23
2018-05-31T14:05:47.952Z,41.94
2018-05-31T14:08:18.719Z,41.67
2018-05-31T14:10:49.495Z,42.04
2018-05-31T14:13:20.282Z,41.29
2018-05-31T14:15:51.053Z,41.07
2018-05-31T14:18:21.824Z,42.12
2018-05-31T14:20:52.611Z,42.68
2018-05-31T14:23:23.423Z,42.21
2018-05-31T14:25:54.201Z,41.43
2018-05-31T14:28:24.972Z,40.66
2018-05-31T14:30:55.744Z,40.14
2018-05-31T14:33:26.524Z,40.43
2018-05-31T14:35:57.311Z,38.13
2018-05-31T14:38:28.072Z,37.10
2018-05-31T14:40:58.840Z,37.24
2018-05-31T14:43:29.640Z,36.35
2018-05-31T14:46:00.428Z,37.28
2018-05-31T14:48:31.221Z,38.68
2018-05-31T14:51:02.156Z,39.56
2018-05-31T14:53:32.927Z,40.09
2018-05-31T14:56:03.711Z,39.80
2018-05-31T14:58:34.477Z,39.23
2018-05-31T15:01:05.275Z,39.42
2018-05-31T15:03:36.055Z,39.79
2018-05-31T15:06:06.839Z,39.85
2018-05-31T15:08:37.608Z,36.49
2018-05-31T15:11:08.375Z,34.29
2018-05-31T15:13:39.156Z,34.76
2018-05-31T15:16:09.924Z,35.29
2018-05-31T15:18:40.694Z,35.07
2018-05-31T15:21:11.479Z,35.06
2018-05-31T15:23:42.236Z,34.22
2018-05-31T15:26:13.020Z,33.89
2018-05-31T15:28:43.794Z,32.91
2018-05-31T15:31:14.589Z,32.67
2018-05-31T15:33:45.379Z,31.83
2018-05-31T15:36:16.174Z,31.47
2018-05-31T15:38:47.037Z,31.83
2018-05-31T15:41:17.834Z,31.75
2018-05-31T15:43:48.587Z,31.42
2018-05-31T15:46:19.376Z,31.53
2018-05-31T15:48:50.179Z,31.44
2018-05-31T15:51:20.980Z,31.44
2018-05-31T15:53:51.760Z,30.99
2018-05-31T15:56:22.580Z,30.63
2018-05-31T15:58:53.699Z,30.74
2018-05-31T16:01:24.529Z,30.52
2018-05-31T16:03:55.300Z,30.26
2018-05-31T16:06:26.104Z,30.32
2018-05-31T16:08:56.891Z,30.19
2018-05-31T16:11:27.679Z,30.16
2018-05-31T16:13:58.460Z,30.06
2018-05-31T16:16:29.258Z,30.02
2018-05-31T16:19:00.027Z,29.72
2018-05-31T16:21:30.822Z,29.96
2018-05-31T16:24:01.601Z,29.70
2018-05-31T16:26:32.415Z,29.78
2018-05-31T16:29:03.184Z,29.23
2018-05-31T16:31:33.992Z,29.06
2018-05-31T16:34:04.805Z,28.99
2018-05-31T16:36:35.603Z,29.20
2018-05-31T16:39:06.425Z,28.82
2018-05-31T16:41:37.245Z,28.91
2018-05-31T16:44:08.024Z,28.67
2018-05-31T16:46:38.812Z,28.55
2018-05-31T16:49:09.596Z,28.32
2018-05-31T16:51:40.451Z,28.21
2018-05-31T16:54:11.225Z,28.15
2018-05-31T16:56:42.007Z,28.04
2018-05-31T16:59:12.920Z,28.05
2018-05-31T17:01:43.749Z,28.04
2018-05-31T17:04:14.512Z,27.88
2018-05-31T17:06:45.275Z,27.74
2018-05-31T17:09:16.062Z,27.76
2018-05-31T17:11:46.877Z,27.50
2018-05-31T17:14:17.652Z,27.49
2018-05-31T17:16:48.474Z,27.32
2018-05-31T17:19:19.253Z,27.19
2018-05-31T17:21:50.072Z,27.23
2018-05-31T17:24:20.825Z,27.09
2018-05-31T17:26:51.632Z,27.16
2018-05-31T17:29:22.407Z,27.11
2018-05-31T17:31:53.250Z,27.04
2018-05-31T17:34:23.990Z,26.85
2018-05-31T17:36:54.777Z,26.59
2018-05-31T17:39:25.544Z,26.50
2018-05-31T17:41:56.347Z,26.53
2018-05-31T17:44:27.136Z,26.54
2018-05-31T17:46:57.969Z,26.23
2018-05-31T17:49:28.782Z,25.65
2018-05-31T17:51:59.587Z,25.10
2018-05-31T17:54:30.372Z,24.86
2018-05-31T17:57:01.184Z,24.83
2018-05-31T17:59:31.981Z,24.82
2018-05-31T18:02:02.772Z,24.79
2018-05-31T18:04:33.552Z,24.79
2018-05-31T18:07:04.349Z,24.83
2018-05-31T18:09:35.108Z,24.84
2018-05-31T18:12:05.902Z,24.80
2018-05-31T18:14:36.708Z,24.91
2018-05-31T18:17:07.492Z,24.76
2018-05-31T18:19:38.256Z,24.66
2018-05-31T18:22:09.046Z,24.64
2018-05-31T18:24:39.839Z,24.48
2018-05-31T18:27:10.663Z,24.49
2018-05-31T18:29:41.443Z,24.45
2018-05-31T18:32:12.243Z,24.34
2018-05-31T18:34:43.059Z,24.31
2018-05-31T18:37:13.806Z,24.24
2018-05-31T18:39:44.586Z,24.05
2018-05-31T18:42:15.376Z,23.90
2018-05-31T18:44:46.154Z,23.71
2018-05-31T18:47:16.956Z,23.53
2018-05-31T18:49:47.736Z,23.46
2018-05-31T18:52:18.529Z,23.38
2018-05-31T18:54:49.301Z,23.08
2018-05-31T18:57:20.108Z,23.03
2018-05-31T18:59:50.895Z,23.01
2018-05-31T19:02:21.690Z,23.05
2018-05-31T19:04:52.512Z,23.13
2018-05-31T19:07:25.316Z,23.06
2018-05-31T19:09:56.105Z,23.00
2018-05-31T19:12:33.032Z,23.13
2018-05-31T19:15:03.830Z,23.28
2018-05-31T19:17:34.635Z,23.16
2018-05-31T19:20:05.439Z,22.93
2018-05-31T19:22:36.238Z,22.96
2018-05-31T19:25:14.207Z,22.86
2018-05-31T19:27:44.997Z,22.84
2018-05-31T19:30:21.843Z,22.74
2018-05-31T19:32:52.661Z,22.60
2018-05-31T19:38:24.052Z,22.63
2018-05-31T19:40:54.836Z,22.59
2018-05-31T19:43:31.831Z,22.65
2018-05-31T19:46:02.662Z,22.55
2018-05-31T19:48:33.481Z,22.58
2018-05-31T19:51:04.286Z,22.53
2018-05-31T19:53:41.307Z,22.53
2018-05-31T19:56:13.116Z,22.55
2018-05-31T19:58:50.037Z,22.49
2018-05-31T20:01:26.820Z,22.59
2018-05-31T20:03:57.645Z,22.59
2018-05-31T20:06:28.430Z,22.52
2018-05-31T20:08:59.232Z,22.32
2018-05-31T20:11:30.016Z,22.23
2018-05-31T20:14:00.828Z,22.14
2018-05-31T20:16:31.607Z,22.13
2018-05-31T20:19:02.433Z,22.15
2018-05-31T20:21:33.267Z,22.19
2018-05-31T20:24:04.091Z,22.14
2018-05-31T20:26:34.875Z,22.16
2018-05-31T20:29:05.699Z,22.13
2018-05-31T20:31:36.489Z,22.10
2018-05-31T20:34:07.313Z,22.05
2018-05-31T20:36:38.125Z,21.96
2018-05-31T20:39:08.918Z,22.03
2018-05-31T20:41:39.708Z,22.03
2018-05-31T20:44:10.521Z,21.98
2018-05-31T20:46:41.324Z,21.91
2018-05-31T20:49:12.124Z,21.86
2018-05-31T20:51:42.908Z,21.72
2018-05-31T20:54:13.716Z,21.65
2018-05-31T20:56:44.508Z,21.41
2018-05-31T20:59:15.303Z,21.33
2018-05-31T21:01:46.073Z,21.26
2018-05-31T21:04:16.875Z,21.23
2018-05-31T21:06:47.641Z,21.21
2018-05-31T21:09:18.453Z,21.26
2018-05-31T21:11:49.300Z,21.26
2018-05-31T21:14:20.058Z,21.25
2018-05-31T21:16:50.849Z,21.25
2018-05-31T21:19:21.640Z,21.20
2018-05-31T21:21:52.461Z,21.17
2018-05-31T21:24:23.272Z,21.15
2018-05-31T21:26:54.076Z,21.21
2018-05-31T21:29:24.885Z,21.14
2018-05-31T21:31:55.675Z,21.11
2018-05-31T21:34:26.485Z,21.10
2018-05-31T21:36:58.280Z,21.13
2018-05-31T21:39:29.089Z,21.05
2018-05-31T21:41:59.882Z,21.03
2018-05-31T21:44:30.713Z,20.95
2018-05-31T21:47:01.503Z,20.81
2018-05-31T21:49:32.302Z,20.77
2018-05-31T21:52:03.104Z,20.78
2018-05-31T21:54:33.900Z,20.66
2018-05-31T21:57:04.668Z,20.59
2018-05-31T21:59:35.481Z,20.54
2018-05-31T22:02:06.287Z,20.51
2018-05-31T22:04:37.116Z,20.49
2018-05-31T22:07:07.903Z,20.39
2018-05-31T22:09:38.704Z,20.37
2018-05-31T22:12:09.493Z,20.25
2018-05-31T22:14:40.372Z,20.23
2018-05-31T22:17:11.159Z,20.23
2018-05-31T22:19:42.016Z,20.16
2018-05-31T22:22:12.805Z,20.21
2018-05-31T22:24:43.589Z,20.20
2018-05-31T22:27:14.388Z,20.16
2018-05-31T22:29:45.196Z,20.15
2018-05-31T22:32:15.987Z,20.17
2018-05-31T22:34:46.883Z,20.10
2018-05-31T22:37:17.668Z,20.07
2018-05-31T22:39:48.468Z,20.03
2018-05-31T22:42:19.247Z,20.11
2018-05-31T22:44:50.025Z,20.06
2018-05-31T22:47:20.907Z,20.05
2018-05-31T22:49:51.692Z,20.06
2018-05-31T22:52:22.478Z,20.10
2018-05-31T22:54:53.280Z,20.00
2018-05-31T22:57:24.083Z,19.98
2018-05-31T22:59:54.884Z,19.96
2018-05-31T23:02:25.653Z,19.91
2018-05-31T23:04:56.479Z,19.89
2018-05-31T23:07:27.256Z,19.88
2018-05-31T23:09:58.059Z,19.84
2018-05-31T23:12:28.837Z,19.85
2018-05-31T23:14:59.648Z,19.87
2018-05-31T23:17:30.525Z,19.77
2018-05-31T23:20:01.353Z,19.76
2018-05-31T23:22:32.147Z,19.69
2018-05-31T23:25:02.950Z,19.74
2018-05-31T23:27:33.721Z,19.77
2018-05-31T23:30:04.555Z,19.69
2018-05-31T23:32:35.365Z,19.62
2018-05-31T23:35:08.292Z,19.43
2018-05-31T23:37:39.108Z,19.51
2018-05-31T23:40:09.944Z,19.46
2018-05-31T23:42:40.744Z,19.44
2018-05-31T23:45:11.569Z,19.44
2018-05-31T23:47:42.341Z,19.41
2018-05-31T23:50:13.148Z,19.36
2018-05-31T23:52:43.932Z,19.29
2018-05-31T23:55:14.748Z,19.26
2018-05-31T23:57:45.536Z,19.26
